Latest Weather Observations for Pirlangimpi

IDD60901

Issued at 12:41 pm CST Tuesday 28 February 2017 (issued every 10 minutes, with the page automatically refreshed every 10 minutes)

About weather observations | Map of Darwin area stations | Latest observations for Darwin area | Other Formats
Station Details ID: 014142 Name: PIRLANGIMPI AIRPORT Lat: -11.40 Lon: 130.42 Height: 18.3 m
Data from the previous 72 hours. | See also: Recent months at Pirlangimpi
Date/Time
CST
Temp
°C
App
Temp
°C
Dew
Point
°C
Rel
Hum
%
Delta-T
°C
Wind Press
QNH
hPa
Press
MSL
hPa
Rain since
9am
mm
Dir  Spd
km/h
Gust
km/h
Spd
kts
Gust
kts
28/12:30pm 28.9 33.4 24.0 75 3.4 SSE 7 15 4 8 1007.9 1007.8 0.4
28/12:00pm 30.2 36.0 24.6 72 3.9 WSW 2 4 1 2 1008.3 1008.2 0.4
28/11:30am 28.1 32.2 23.9 78 2.9 SSW 9 15 5 8 1008.6 1008.5 0.4
28/11:00am 29.7 35.0 25.0 76 3.3 S 6 9 3 5 1008.6 1008.5 0.2
28/10:30am 29.5 34.4 24.6 75 3.4 SE 7 11 4 6 1008.9 1008.8 0.0
28/10:00am 28.9 34.0 24.9 79 2.8 S 7 11 4 6 1009.1 1009.0 0.0
28/09:30am 28.0 32.9 24.6 82 2.4 S 7 11 4 6 1009.1 1009.0 0.0
28/09:00am 27.2 31.9 24.3 84 2.0 S 7 11 4 6 1009.0 1008.9 12.4
28/08:30am 26.6 31.7 24.6 89 1.4 S 6 9 3 5 1008.8 1008.7 12.4
28/08:00am 25.7 30.8 24.1 91 1.1 SE 4 6 2 3 1008.5 1008.4 12.4
28/07:30am 24.8 29.8 23.8 94 0.7 SSE 4 6 2 3 1008.1 1008.0 12.4
28/07:00am 24.2 28.9 23.3 95 0.6 SSE 4 6 2 3 1007.7 1007.6 12.4
28/06:30am 23.8 29.1 23.0 95 0.5 CALM 0 0 0 0 1007.5 1007.4 12.4
28/06:00am 23.8 29.0 22.8 94 0.7 CALM 0 0 0 0 1007.4 1007.3 12.4
28/05:30am 23.8 29.0 22.8 94 0.7 CALM 0 0 0 0 1007.6 1007.5 12.4
28/05:00am 23.9 29.1 22.9 94 0.7 CALM 0 0 0 0 1007.8 1007.7 12.4
28/04:30am 24.0 29.3 23.0 94 0.7 CALM 0 0 0 0 1007.4 1007.3 12.4
28/04:00am 24.0 29.3 23.0 94 0.7 CALM 0 2 0 1 1007.4 1007.3 12.4
28/03:30am 23.9 27.9 22.7 93 0.8 SW 6 7 3 4 1008.2 1008.1 12.2
28/03:00am 23.7 28.9 22.9 95 0.5 CALM 0 4 0 2 1008.4 1008.3 12.2
28/02:30am 23.6 28.4 22.8 95 0.5 W 2 4 1 2 1008.2 1008.1 12.2
28/02:00am 23.5 28.5 22.5 94 0.7 CALM 0 2 0 1 1008.0 1007.9 11.8
28/01:30am 23.4 27.1 22.2 93 0.8 SSW 6 11 3 6 1008.7 1008.6 11.6
28/01:00am 25.6 28.3 22.9 85 1.8 ESE 13 22 7 12 1009.3 1009.2 1.6
28/12:30am 24.9 30.3 23.9 94 0.7 ENE 2 4 1 2 1009.2 1009.1 1.6
28/12:00am 24.8 30.2 23.8 94 0.7 NE 2 2 1 1 1009.2 1009.1 1.6
 
Date/Time
CST
Temp
°C
App
Temp
°C
Dew
Point
°C
Rel
Hum
%
Delta-T
°C
Wind Press
QNH
hPa
Press
MSL
hPa
Rain since
9am
mm
Dir  Spd
km/h
Gust
km/h
Spd
kts
Gust
kts
27/11:30pm 25.1 31.0 24.1 94 0.7 CALM 0 0 0 0 1009.4 1009.3 1.6
27/11:00pm 25.2 31.2 24.2 94 0.7 CALM 0 0 0 0 1009.2 1009.1 1.6
27/10:30pm 25.1 31.0 24.1 94 0.7 CALM 0 0 0 0 1009.2 1009.1 1.6
27/10:00pm 25.3 31.2 24.1 93 0.8 CALM 0 0 0 0 1008.8 1008.7 1.6
27/09:30pm 25.2 31.0 24.0 93 0.8 CALM 0 0 0 0 1008.4 1008.3 1.6
27/09:00pm 25.3 31.2 24.1 93 0.8 CALM 0 0 0 0 1008.4 1008.3 1.4
27/08:30pm 25.6 31.3 24.4 93 0.8 ENE 2 6 1 3 1008.1 1008.0 1.4
27/08:00pm 25.6 31.6 24.2 92 1.0 CALM 0 0 0 0 1007.7 1007.6 1.4
27/07:30pm 25.8 31.8 24.2 91 1.1 CALM 0 0 0 0 1007.1 1007.0 1.4
27/07:00pm 26.3 32.3 24.3 89 1.4 CALM 0 0 0 0 1007.0 1006.9 1.4
27/06:30pm 26.6 32.4 23.9 85 1.9 CALM 0 0 0 0 1006.5 1006.4 1.4
27/06:00pm 26.6 32.8 24.6 89 1.4 CALM 0 0 0 0 1006.7 1006.6 1.4
27/05:30pm 25.9 31.8 24.1 90 1.2 CALM 0 2 0 1 1006.5 1006.4 1.4
27/05:00pm 25.4 30.4 23.8 91 1.1 ESE 4 6 2 3 1006.2 1006.1 1.4
27/04:30pm 25.5 29.9 22.8 85 1.8 WSW 4 7 2 4 1006.7 1006.6 1.0
27/04:00pm 26.9 30.6 22.5 77 3.0 E 7 13 4 7 1007.2 1007.1 0.0
27/03:30pm 26.8 29.9 22.2 76 3.1 NNW 9 19 5 10 1006.7 1006.6 0.0
27/03:00pm 28.3 31.8 22.8 72 3.8 SSE 9 19 5 10 1006.3 1006.2 0.0
27/02:30pm 32.1 36.2 25.2 67 4.9 NW 13 30 7 16 1006.4 1006.3 0.0
27/02:00pm 33.6 37.5 24.8 60 6.2 SSW 13 20 7 11 1007.0 1006.9 0.0
27/01:30pm 32.1 36.1 24.4 63 5.4 SSW 11 17 6 9 1007.5 1007.4 0.0
27/01:00pm 32.5 36.1 23.7 59 6.1 SSW 11 19 6 10 1007.7 1007.6 0.0
27/12:30pm 32.2 35.4 23.7 61 5.9 SSW 13 17 7 9 1008.1 1008.0 0.0
27/12:00pm 31.5 35.7 24.1 65 5.2 SW 9 15 5 8 1008.6 1008.5 0.0
27/11:30am 31.4 34.7 23.8 64 5.3 SSW 13 17 7 9 1008.8 1008.7 0.0
27/11:00am 31.6 34.8 23.7 63 5.5 SSW 13 19 7 10 1009.0 1008.9 0.0
27/10:30am 31.2 34.6 24.1 66 5.0 SSW 13 17 7 9 1009.2 1009.1 0.0
27/10:00am 30.8 34.1 23.2 64 5.2 S 11 17 6 9 1009.6 1009.5 0.0
27/09:30am 29.9 34.8 24.3 72 3.9 SSE 6 9 3 5 1009.5 1009.4 0.0
27/09:00am 27.8 33.3 24.6 83 2.2 SSE 4 6 2 3 1009.5 1009.4 0.0
27/08:30am 26.8 32.4 24.3 86 1.7 SSE 2 6 1 3 1009.4 1009.3 0.0
27/08:00am 26.1 31.9 24.0 88 1.4 CALM 0 0 0 0 1008.9 1008.8 0.0
27/07:30am 25.3 31.1 23.9 92 1.0 CALM 0 0 0 0 1008.8 1008.7 0.0
27/07:00am 24.7 30.1 23.3 92 1.0 CALM 0 0 0 0 1008.4 1008.3 0.0
27/06:30am 24.6 29.3 23.4 93 0.8 E 4 6 2 3 1008.0 1007.9 0.0
27/06:00am 24.4 29.7 23.0 92 0.9 CALM 0 2 0 1 1007.6 1007.5 0.0
27/05:30am 24.5 29.7 22.8 90 1.1 CALM 0 2 0 1 1007.5 1007.4 0.0
27/05:00am 25.1 30.4 23.0 88 1.4 CALM 0 4 0 2 1007.4 1007.3 0.0
27/04:30am 25.3 29.5 23.2 88 1.4 SE 6 9 3 5 1006.9 1006.8 0.0
27/04:00am 25.6 30.9 23.1 86 1.7 CALM 0 4 0 2 1007.2 1007.1 0.0
27/03:30am 25.8 28.8 23.3 86 1.7 SSW 13 20 7 11 1007.6 1007.5 0.0
27/03:00am 25.7 31.2 23.4 87 1.6 CALM 0 0 0 0 1007.3 1007.2 0.0
27/02:30am 25.8 31.1 23.1 85 1.8 CALM 0 4 0 2 1008.0 1007.9 0.0
27/02:00am 26.1 31.1 23.2 84 2.0 SE 2 4 1 2 1008.4 1008.3 0.0
27/01:30am 26.4 29.8 22.7 80 2.5 S 9 13 5 7 1008.8 1008.7 0.0
27/01:00am 26.5 31.5 23.8 85 1.9 SSE 4 6 2 3 1009.0 1008.9 0.0
27/12:30am 26.8 31.8 23.9 84 2.0 SE 4 6 2 3 1009.4 1009.3 0.0
27/12:00am 27.2 31.9 24.3 84 2.0 S 7 11 4 6 1010.1 1010.0 0.0
 
Date/Time
CST
Temp
°C
App
Temp
°C
Dew
Point
°C
Rel
Hum
%
Delta-T
°C
Wind Press
QNH
hPa
Press
MSL
hPa
Rain since
9am
mm
Dir  Spd
km/h
Gust
km/h
Spd
kts
Gust
kts
26/11:30pm 27.9 32.1 24.7 83 2.2 S 11 17 6 9 1010.2 1010.1 0.0
26/11:00pm 28.6 34.0 25.4 83 2.3 SSW 7 13 4 7 1010.2 1010.1 0.0
26/10:30pm 28.0 33.8 25.2 85 2.0 SSE 4 4 2 2 1010.1 1010.0 0.0
26/10:00pm 28.3 34.1 25.1 83 2.2 SW 4 7 2 4 1009.5 1009.4 0.0
26/09:30pm 28.1 34.2 25.1 84 2.1 W 2 6 1 3 1008.6 1008.5 0.0
26/09:00pm 28.1 34.6 25.1 84 2.1 CALM 0 2 0 1 1008.6 1008.5 0.0
26/08:30pm 28.6 34.3 25.0 81 2.5 SSW 4 6 2 3 1008.4 1008.3 0.0
26/08:00pm 29.0 35.0 24.8 78 2.9 WSW 2 4 1 2 1007.7 1007.6 0.0
26/07:30pm 29.7 34.9 24.8 75 3.4 WSW 6 11 3 6 1007.1 1007.0 0.0
26/07:00pm 30.2 35.4 24.8 73 3.8 WSW 6 13 3 7 1006.5 1006.4 0.0
26/06:30pm 31.4 36.5 25.0 69 4.5 WSW 7 15 4 8 1006.0 1005.9 0.0
26/06:00pm 32.1 37.3 24.2 63 5.5 SW 4 9 2 5 1005.8 1005.7 0.0
26/05:30pm 33.2 36.4 22.3 52 7.5 SSW 9 17 5 9 1005.7 1005.6 0.0
26/05:00pm 32.8 35.6 21.6 51 7.6 S 9 15 5 8 1005.6 1005.5 0.0
26/04:30pm 33.3 36.0 22.1 52 7.7 S 11 17 6 9 1005.6 1005.5 0.0
26/04:00pm 33.5 36.1 22.6 53 7.5 S 13 17 7 9 1005.6 1005.5 0.0
26/03:30pm 33.5 36.3 22.3 52 7.7 S 11 17 6 9 1005.8 1005.7 0.0
26/03:00pm 33.7 37.2 22.8 53 7.5 S 9 15 5 8 1006.0 1005.9 0.0
26/02:30pm 33.8 37.1 23.2 54 7.4 SSE 11 19 6 10 1006.3 1006.2 0.0
26/02:00pm 33.7 36.2 22.5 52 7.7 S 13 19 7 10 1006.6 1006.5 0.0
26/01:30pm 33.2 35.8 22.6 53 7.3 S 13 22 7 12 1007.1 1007.0 0.0
26/01:00pm 32.8 35.7 23.2 57 6.6 S 13 22 7 12 1007.4 1007.3 0.0
26/12:30pm 32.9 36.2 23.8 58 6.4 SSW 13 20 7 11 1007.7 1007.6 0.0
26/12:00pm 32.2 35.2 24.0 62 5.7 SSW 15 19 8 10 1008.1 1008.0 0.0
26/11:30am 31.9 36.1 24.7 65 5.1 SSW 11 19 6 10 1008.4 1008.3 0.0
26/11:00am 31.1 34.9 24.0 66 4.9 S 11 19 6 10 1008.8 1008.7 0.0
26/10:30am 30.8 35.0 24.7 70 4.3 SSW 11 19 6 10 1009.0 1008.9 0.0
26/10:00am 30.1 34.7 24.7 73 3.8 SSW 9 15 5 8 1009.1 1009.0 0.0
26/09:30am 29.2 34.0 24.5 76 3.3 S 7 11 4 6 1009.1 1009.0 0.0
26/09:00am 28.3 33.4 24.1 78 2.9 SSE 4 6 2 3 1009.1 1009.0 0.0
26/08:30am 27.7 33.0 24.3 82 2.4 SW 4 7 2 4 1008.9 1008.8 0.0
26/08:00am 26.9 32.2 24.4 86 1.7 S 4 6 2 3 1008.7 1008.6 0.0
26/07:30am 26.2 31.5 24.4 90 1.2 S 4 6 2 3 1008.7 1008.6 0.0
26/07:00am 25.4 30.5 24.0 92 1.0 SSW 4 6 2 3 1008.4 1008.3 0.0
26/06:30am 25.1 30.2 24.1 94 0.7 SSW 4 6 2 3 1008.3 1008.2 0.0
26/06:00am 24.6 30.2 23.6 94 0.7 CALM 0 0 0 0 1008.0 1007.9 0.0
26/05:30am 24.6 30.2 23.6 94 0.7 CALM 0 0 0 0 1007.8 1007.7 0.0
26/05:00am 24.7 30.4 23.7 94 0.7 CALM 0 0 0 0 1007.6 1007.5 0.0
26/04:30am 24.8 30.4 23.6 93 0.8 CALM 0 0 0 0 1008.0 1007.9 0.0
26/04:00am 24.8 30.3 23.4 92 1.0 CALM 0 0 0 0 1008.0 1007.9 0.0
26/03:30am 25.2 31.0 24.0 93 0.8 CALM 0 0 0 0 1008.2 1008.1 0.0
26/03:00am 25.2 31.0 24.0 93 0.8 CALM 0 0 0 0 1008.5 1008.4 0.0
26/02:30am 25.4 31.4 24.2 93 0.8 CALM 0 0 0 0 1008.5 1008.4 0.0
26/02:00am 25.4 31.0 24.2 93 0.8 SW 2 4 1 2 1008.6 1008.5 0.0
26/01:30am 25.5 31.1 24.3 93 0.8 WSW 2 4 1 2 1008.9 1008.8 0.0
26/01:00am 25.5 31.5 24.3 93 0.8 CALM 0 0 0 0 1009.4 1009.3 0.0
26/12:30am 25.6 31.6 24.2 92 1.0 CALM 0 0 0 0 1009.7 1009.6 0.0
26/12:00am 25.7 31.8 24.5 93 0.8 CALM 0 0 0 0 1009.7 1009.6 0.0
 
Date/Time
CST
Temp
°C
App
Temp
°C
Dew
Point
°C
Rel
Hum
%
Delta-T
°C
Wind Press
QNH
hPa
Press
MSL
hPa
Rain since
9am
mm
Dir  Spd
km/h
Gust
km/h
Spd
kts
Gust
kts
25/11:30pm 25.6 31.6 24.2 92 1.0 CALM 0 0 0 0 1010.0 1009.9 0.0
25/11:00pm 25.8 31.9 24.4 92 1.0 CALM 0 0 0 0 1010.0 1009.9 0.0
25/10:30pm 25.9 31.9 24.3 91 1.1 CALM 0 0 0 0 1009.9 1009.8 0.0
25/10:00pm 26.0 32.0 24.2 90 1.2 CALM 0 2 0 1 1009.7 1009.6 0.0
25/09:30pm 26.1 32.1 24.3 90 1.2 CALM 0 2 0 1 1009.8 1009.7 0.0
25/09:00pm 26.1 32.0 24.1 89 1.4 CALM 0 0 0 0 1009.6 1009.5 0.0
25/08:30pm 26.4 32.2 23.9 86 1.7 CALM 0 0 0 0 1009.5 1009.4 0.0
25/08:00pm 26.7 31.7 23.8 84 2.0 NNW 4 6 2 3 1009.4 1009.3 0.0
25/07:30pm 26.7 31.2 23.6 83 2.1 NNW 6 11 3 6 1009.1 1009.0 0.0
25/07:00pm 26.9 31.1 23.2 80 2.5 N 6 13 3 7 1008.7 1008.6 0.0
25/06:30pm 27.6 31.8 23.4 78 2.9 NE 7 15 4 8 1008.3 1008.2 0.0
25/06:00pm 29.3 34.6 23.7 72 3.9 N 2 6 1 3 1008.0 1007.9 0.0
25/05:30pm 30.3 35.0 24.0 69 4.4 SSE 6 11 3 6 1007.8 1007.7 0.0
25/05:00pm 32.0 36.6 23.8 62 5.7 W 6 13 3 7 1007.8 1007.7 0.0
25/04:30pm 31.9 36.4 24.0 63 5.5 W 7 13 4 7 1007.5 1007.4 0.0
25/04:00pm 31.3 34.4 22.9 61 5.8 WSW 11 20 6 11 1007.9 1007.8 0.0
25/03:30pm 32.3 35.6 23.8 61 5.9 NNW 13 20 7 11 1008.1 1008.0 0.0
25/03:00pm 32.9 36.9 23.8 58 6.3 NNW 9 17 5 9 1008.3 1008.2 0.0
25/02:30pm 33.0 37.6 24.7 61 5.9 NNW 9 20 5 11 1008.7 1008.6 0.0
25/02:00pm 32.5 36.8 23.7 59 6.1 NW 7 13 4 7 1009.0 1008.9 0.0
25/01:30pm 32.4 36.9 23.6 59 6.1 WNW 6 13 3 7 1009.6 1009.5 0.0
25/01:00pm 33.0 37.3 22.7 54 7.1 W 4 7 2 4 1010.0 1009.9 0.0

Latest Capital City Observations: Canberra | Sydney | Melbourne | Brisbane | Adelaide | Perth | Hobart | Darwin

Other Formats:

Comma delimited format used in spreadsheet applications
http://www.bom.gov.au/fwo/IDD60901/IDD60901.94119.axf

JavaScript Object Notation format (JSON) in row-major order
http://www.bom.gov.au/fwo/IDD60901/IDD60901.94119.json